createdAt,value
2019-04-27T00:01:05.202Z,4.40
2019-04-27T00:03:43.268Z,4.73
2019-04-27T00:06:14.129Z,4.47
2019-04-27T00:08:45.775Z,4.27
2019-04-27T00:11:33.185Z,4.27
2019-04-27T00:14:01.754Z,3.72
2019-04-27T00:16:59.409Z,1.77
2019-04-27T00:19:46.527Z,4.17
2019-04-27T00:22:31.053Z,2.33
2019-04-27T00:24:59.335Z,4.60
2019-04-27T00:27:27.867Z,2.90
2019-04-27T00:29:56.323Z,2.50
2019-04-27T00:32:24.994Z,1.30
2019-04-27T00:34:54.012Z,5.97
2019-04-27T00:37:36.451Z,3.40
2019-04-27T00:40:09.477Z,3.13
2019-04-27T00:42:38.445Z,3.00
2019-04-27T00:45:07.013Z,3.50
2019-04-27T00:47:35.505Z,2.80
2019-04-27T00:50:04.865Z,4.33
2019-04-27T00:52:34.898Z,3.83
2019-04-27T00:55:03.587Z,2.57
2019-04-27T00:57:45.217Z,4.50
2019-04-27T01:00:36.473Z,1.87
2019-04-27T01:03:16.677Z,1.67
2019-04-27T01:05:45.234Z,3.13
2019-04-27T01:08:13.935Z,2.57
2019-04-27T01:10:43.564Z,0.80
2019-04-27T01:13:13.418Z,3.70
2019-04-27T01:15:43.044Z,2.93
2019-04-27T01:18:15.189Z,4.00
2019-04-27T01:20:42.084Z,3.17
2019-04-27T01:23:10.802Z,2.90
2019-04-27T01:26:04.806Z,3.17
2019-04-27T01:28:39.598Z,2.63
2019-04-27T01:31:10.673Z,3.80
2019-04-27T01:33:39.067Z,3.00
2019-04-27T01:36:08.903Z,2.70
2019-04-27T01:38:38.986Z,4.03
2019-04-27T01:41:09.517Z,3.63
2019-04-27T01:43:38.798Z,3.33
2019-04-27T01:46:08.798Z,4.50
2019-04-27T01:48:38.687Z,3.53
2019-04-27T01:51:09.117Z,2.57
2019-04-27T01:53:39.038Z,4.03
2019-04-27T01:56:09.264Z,5.30
2019-04-27T01:58:39.230Z,3.73
2019-04-27T02:01:29.417Z,5.17
2019-04-27T02:04:34.658Z,5.00
2019-04-27T02:07:05.173Z,5.20
2019-04-27T02:09:33.713Z,3.50
2019-04-27T02:12:02.162Z,3.30
2019-04-27T02:14:30.780Z,5.20
2019-04-27T02:16:59.575Z,5.00
2019-04-27T02:19:29.198Z,4.07
2019-04-27T02:21:59.650Z,2.20
2019-04-27T02:24:28.798Z,6.10
2019-04-27T02:26:58.771Z,2.47
2019-04-27T02:29:39.144Z,9.53
2019-04-27T02:32:25.841Z,5.53
2019-04-27T02:35:05.786Z,10.47
2019-04-27T02:37:34.236Z,2.67
2019-04-27T02:40:02.597Z,2.83
2019-04-27T02:42:42.255Z,6.20
2019-04-27T02:45:10.994Z,2.23
2019-04-27T02:47:40.818Z,4.83
2019-04-27T02:50:10.715Z,5.70
2019-04-27T02:52:44.266Z,2.90
2019-04-27T02:55:13.041Z,6.13
2019-04-27T02:57:41.441Z,2.87
2019-04-27T03:00:10.787Z,8.33
2019-04-27T03:02:45.986Z,5.77
2019-04-27T03:05:25.017Z,2.83
2019-04-27T03:07:53.833Z,5.07
2019-04-27T03:10:24.570Z,7.70
2019-04-27T03:13:00.328Z,7.27
2019-04-27T03:15:51.842Z,4.60
2019-04-27T03:18:32.784Z,6.72
2019-04-27T03:21:13.014Z,8.43
2019-04-27T03:23:41.334Z,7.40
2019-04-27T03:26:42.805Z,9.70
2019-04-27T03:29:11.629Z,7.20
2019-04-27T03:31:42.557Z,7.07
2019-04-27T03:34:15.713Z,4.97
2019-04-27T03:36:41.173Z,7.00
2019-04-27T03:39:10.169Z,10.10
2019-04-27T03:41:41.171Z,8.00
2019-04-27T03:44:09.582Z,7.83
2019-04-27T03:46:39.659Z,6.73
2019-04-27T03:49:09.781Z,5.90
2019-04-27T03:51:45.659Z,8.23
2019-04-27T03:54:39.670Z,5.33
2019-04-27T03:57:35.826Z,6.77
2019-04-27T04:00:12.275Z,9.07
2019-04-27T04:02:40.815Z,7.50
2019-04-27T04:05:09.836Z,7.10
2019-04-27T04:07:40.239Z,7.90
2019-04-27T04:10:10.816Z,8.73
2019-04-27T04:13:10.518Z,9.07
2019-04-27T04:15:45.750Z,9.20
2019-04-27T04:18:14.549Z,11.20
2019-04-27T04:20:43.064Z,8.43
2019-04-27T04:23:11.443Z,6.50
2019-04-27T04:25:40.874Z,11.60
2019-04-27T04:28:10.152Z,9.77
2019-04-27T04:30:40.287Z,11.07
2019-04-27T04:33:10.128Z,8.07
2019-04-27T04:35:39.784Z,6.87
2019-04-27T04:38:10.411Z,14.77
2019-04-27T04:40:51.413Z,8.43
2019-04-27T04:43:30.574Z,9.80
2019-04-27T04:46:10.697Z,10.70
2019-04-27T04:48:40.235Z,11.57
2019-04-27T04:51:10.144Z,14.80
2019-04-27T04:53:40.605Z,9.03
2019-04-27T04:56:10.662Z,6.07
2019-04-27T04:58:41.464Z,7.53
2019-04-27T05:01:10.022Z,9.67
2019-04-27T05:03:38.939Z,8.70
2019-04-27T05:06:08.843Z,11.33
2019-04-27T05:08:39.272Z,8.77
2019-04-27T05:11:09.517Z,9.17
2019-04-27T05:13:39.334Z,11.90
2019-04-27T05:16:08.960Z,15.23
2019-04-27T05:18:39.276Z,12.90
2019-04-27T05:21:29.414Z,17.53
2019-04-27T05:23:58.596Z,11.17
2019-04-27T05:26:29.467Z,10.93
2019-04-27T05:28:59.259Z,15.67
2019-04-27T05:31:29.396Z,9.20
2019-04-27T05:33:59.355Z,9.63
2019-04-27T05:36:29.500Z,10.50
2019-04-27T05:38:59.741Z,17.00
2019-04-27T05:41:31.192Z,10.73
2019-04-27T05:44:30.233Z,13.43
2019-04-27T05:47:24.416Z,14.70
2019-04-27T05:50:09.092Z,11.60
2019-04-27T05:52:38.640Z,11.17
2019-04-27T05:55:10.372Z,11.87
2019-04-27T05:57:39.114Z,9.87
2019-04-27T06:00:09.193Z,7.57
2019-04-27T06:02:39.721Z,17.40
2019-04-27T06:05:08.830Z,13.40
2019-04-27T06:07:37.151Z,15.27
2019-04-27T06:10:05.663Z,18.17
2019-04-27T06:12:34.234Z,13.30
2019-04-27T06:15:03.001Z,11.23
2019-04-27T06:17:31.549Z,13.80
2019-04-27T06:20:00.293Z,13.50
2019-04-27T06:22:29.982Z,18.30
2019-04-27T06:25:00.017Z,13.87
2019-04-27T06:27:30.664Z,14.07
2019-04-27T06:29:59.481Z,11.73
2019-04-27T06:32:29.532Z,9.80
2019-04-27T06:34:59.184Z,10.70
2019-04-27T06:37:29.420Z,14.17
2019-04-27T06:39:59.636Z,9.70
2019-04-27T06:42:29.647Z,14.15
2019-04-27T06:44:59.880Z,11.87
2019-04-27T06:47:29.470Z,14.53
2019-04-27T06:49:58.678Z,16.87
2019-04-27T06:52:29.046Z,11.90
2019-04-27T06:54:57.525Z,9.60
2019-04-27T06:57:25.861Z,10.63
2019-04-27T06:59:54.325Z,13.93
2019-04-27T07:02:22.700Z,14.10
2019-04-27T07:04:55.213Z,15.87
2019-04-27T07:07:23.750Z,10.57
2019-04-27T07:09:52.398Z,11.27
2019-04-27T07:12:21.211Z,12.50
2019-04-27T07:14:53.787Z,10.83
2019-04-27T07:17:20.337Z,13.53
2019-04-27T07:19:49.728Z,9.70
2019-04-27T07:22:19.902Z,15.00
2019-04-27T07:24:49.078Z,12.17
2019-04-27T07:27:19.175Z,10.83
2019-04-27T07:29:49.503Z,14.77
2019-04-27T07:32:19.297Z,15.03
2019-04-27T07:34:49.646Z,12.80
2019-04-27T07:37:19.605Z,15.03
2019-04-27T07:39:49.162Z,12.47
2019-04-27T07:42:17.557Z,12.63
2019-04-27T07:45:01.842Z,9.03
2019-04-27T07:47:31.728Z,13.53
2019-04-27T07:50:01.359Z,13.17
2019-04-27T07:52:30.620Z,13.83
2019-04-27T07:54:59.277Z,12.83
2019-04-27T07:57:28.985Z,11.13
2019-04-27T07:59:59.493Z,11.80
2019-04-27T08:02:29.134Z,10.30
2019-04-27T08:04:59.432Z,10.47
2019-04-27T08:07:29.144Z,16.57
2019-04-27T08:10:01.635Z,14.25
2019-04-27T08:12:30.754Z,8.77
2019-04-27T08:15:00.027Z,12.93
2019-04-27T08:17:30.233Z,10.13
2019-04-27T08:19:59.553Z,11.43
2019-04-27T08:22:29.094Z,15.57
2019-04-27T08:24:59.264Z,12.70
2019-04-27T08:27:43.846Z,18.00
2019-04-27T08:30:23.298Z,16.00
2019-04-27T08:32:52.600Z,14.93
2019-04-27T08:35:21.321Z,15.90
2019-04-27T08:37:49.869Z,15.17
2019-04-27T08:40:19.353Z,8.27
2019-04-27T08:42:50.831Z,14.80
2019-04-27T08:45:19.327Z,15.40
2019-04-27T08:47:49.776Z,16.67
2019-04-27T08:50:20.646Z,14.60
2019-04-27T08:52:50.385Z,12.30
2019-04-27T08:55:19.712Z,16.80
2019-04-27T08:57:48.868Z,13.27
2019-04-27T09:00:19.182Z,16.00
2019-04-27T09:02:49.582Z,13.30
2019-04-27T09:05:24.958Z,14.80
2019-04-27T09:08:18.775Z,11.10
2019-04-27T09:11:05.851Z,11.90
2019-04-27T09:13:50.174Z,15.70
2019-04-27T09:16:26.626Z,17.80
2019-04-27T09:18:59.763Z,15.17
2019-04-27T09:21:48.564Z,15.93
2019-04-27T09:24:18.724Z,15.40
2019-04-27T09:26:47.125Z,17.27
2019-04-27T09:29:15.333Z,11.90
2019-04-27T09:31:44.127Z,13.13
2019-04-27T09:34:14.786Z,13.20
2019-04-27T09:36:42.954Z,15.17
2019-04-27T09:39:11.429Z,17.10
2019-04-27T09:41:39.830Z,12.33
2019-04-27T09:44:08.189Z,9.43
2019-04-27T09:46:36.596Z,15.23
2019-04-27T09:49:07.368Z,18.07
2019-04-27T09:51:36.338Z,11.13
2019-04-27T09:54:05.850Z,16.27
2019-04-27T09:56:34.122Z,13.63
2019-04-27T09:59:03.110Z,13.73
2019-04-27T10:01:31.341Z,18.10
2019-04-27T10:04:00.017Z,12.13
2019-04-27T10:06:30.025Z,14.17
2019-04-27T10:08:58.805Z,14.20
2019-04-27T10:11:27.629Z,17.60
2019-04-27T10:13:56.666Z,16.30
2019-04-27T10:16:25.717Z,14.73
2019-04-27T10:18:54.103Z,16.83
2019-04-27T10:21:22.462Z,16.07
2019-04-27T10:23:50.794Z,18.53
2019-04-27T10:26:19.572Z,16.80
2019-04-27T10:28:48.002Z,13.13
2019-04-27T10:31:16.766Z,13.80
2019-04-27T10:33:45.837Z,14.83
2019-04-27T10:36:16.997Z,16.67
2019-04-27T10:38:45.802Z,13.37
2019-04-27T10:41:15.868Z,11.00
2019-04-27T10:43:44.803Z,9.70
2019-04-27T10:46:13.313Z,18.00
2019-04-27T10:48:41.838Z,13.53
2019-04-27T10:51:10.709Z,19.70
2019-04-27T10:53:39.430Z,12.67
2019-04-27T10:56:08.416Z,12.53
2019-04-27T10:58:37.021Z,10.90
2019-04-27T11:01:07.606Z,18.00
2019-04-27T11:03:55.513Z,13.53
2019-04-27T11:06:30.792Z,13.03
2019-04-27T11:08:59.744Z,15.63
2019-04-27T11:11:28.367Z,12.90
2019-04-27T11:14:00.743Z,15.93
2019-04-27T11:16:27.976Z,16.20
2019-04-27T11:18:58.675Z,17.20
2019-04-27T11:21:27.069Z,17.03
2019-04-27T11:23:55.984Z,12.77
2019-04-27T11:26:26.222Z,13.90
2019-04-27T11:28:55.013Z,13.83
2019-04-27T11:31:23.481Z,12.93
2019-04-27T11:33:52.379Z,11.57
2019-04-27T11:36:35.704Z,9.77
2019-04-27T11:39:08.013Z,16.90
2019-04-27T11:41:37.273Z,13.87
2019-04-27T11:44:05.646Z,12.63
2019-04-27T11:46:34.206Z,17.80
2019-04-27T11:49:03.138Z,18.00
2019-04-27T11:51:32.100Z,11.73
2019-04-27T11:54:01.033Z,13.00
2019-04-27T11:56:30.030Z,14.17
2019-04-27T11:58:58.779Z,18.97
2019-04-27T12:01:29.077Z,15.33
2019-04-27T12:03:57.581Z,17.30
2019-04-27T12:06:27.333Z,12.73
2019-04-27T12:08:55.505Z,19.27
2019-04-27T12:11:26.010Z,11.70
2019-04-27T12:13:58.105Z,7.47
2019-04-27T12:16:26.581Z,16.23
2019-04-27T12:18:56.382Z,15.37
2019-04-27T12:21:25.488Z,11.83
2019-04-27T12:23:53.769Z,12.80
2019-04-27T12:26:37.331Z,14.47
2019-04-27T12:29:07.498Z,17.13
2019-04-27T12:31:38.951Z,8.60
2019-04-27T12:34:07.617Z,10.70
2019-04-27T12:36:36.850Z,12.57
2019-04-27T12:39:09.903Z,11.10
2019-04-27T12:41:39.303Z,9.10
2019-04-27T12:44:08.193Z,15.70
2019-04-27T12:46:36.570Z,6.63
2019-04-27T12:49:05.931Z,8.48
2019-04-27T12:51:35.569Z,10.50
2019-04-27T12:54:24.179Z,5.40
2019-04-27T12:57:10.683Z,8.93
2019-04-27T12:59:57.192Z,8.07
2019-04-27T13:02:28.712Z,10.23
2019-04-27T13:04:58.151Z,9.80
2019-04-27T13:07:26.324Z,11.88
2019-04-27T13:09:56.297Z,7.62
2019-04-27T13:12:25.737Z,8.53
2019-04-27T13:14:56.006Z,9.25
2019-04-27T13:17:29.969Z,7.87
2019-04-27T13:19:58.660Z,9.18
2019-04-27T13:22:27.397Z,9.88
2019-04-27T13:24:56.601Z,8.60
2019-04-27T13:27:26.862Z,8.65
2019-04-27T13:29:55.627Z,12.03
2019-04-27T13:32:26.571Z,10.30
2019-04-27T13:34:56.630Z,10.05
2019-04-27T13:37:36.425Z,10.40
2019-04-27T13:40:09.384Z,7.85
2019-04-27T13:42:43.006Z,8.90
2019-04-27T13:45:20.524Z,9.15
2019-04-27T13:48:06.784Z,9.38
2019-04-27T13:50:39.711Z,5.35
2019-04-27T13:53:08.464Z,13.68
2019-04-27T13:55:36.817Z,11.20
2019-04-27T13:58:05.254Z,10.98
2019-04-27T14:00:34.823Z,9.48
2019-04-27T14:03:04.530Z,12.80
2019-04-27T14:05:32.921Z,5.75
2019-04-27T14:08:01.098Z,6.03
2019-04-27T14:10:29.369Z,8.30
2019-04-27T14:12:59.077Z,7.22
2019-04-27T14:15:28.885Z,10.85
2019-04-27T14:17:59.077Z,8.03
2019-04-27T14:20:28.760Z,7.28
2019-04-27T14:23:12.187Z,9.68
2019-04-27T14:25:40.530Z,6.55
2019-04-27T14:28:11.690Z,5.78
2019-04-27T14:30:40.146Z,3.83
2019-04-27T14:33:08.612Z,7.53
2019-04-27T14:35:36.967Z,8.03
2019-04-27T14:38:05.657Z,7.00
2019-04-27T14:40:34.049Z,6.60
2019-04-27T14:43:02.387Z,8.40
2019-04-27T14:45:30.714Z,6.93
2019-04-27T14:48:00.285Z,11.40
2019-04-27T14:50:28.617Z,8.70
2019-04-27T14:52:58.885Z,8.03
2019-04-27T14:55:28.250Z,6.90
2019-04-27T14:57:58.644Z,12.63
2019-04-27T15:00:28.786Z,9.53
2019-04-27T15:02:59.054Z,8.43
2019-04-27T15:05:27.383Z,8.33
2019-04-27T15:07:56.328Z,7.27
2019-04-27T15:10:27.100Z,7.97
2019-04-27T15:12:55.494Z,12.07
2019-04-27T15:15:24.106Z,6.03
2019-04-27T15:17:52.810Z,8.43
2019-04-27T15:20:33.283Z,5.07
2019-04-27T15:23:02.133Z,7.07
2019-04-27T15:25:34.971Z,8.03
2019-04-27T15:28:02.967Z,13.50
2019-04-27T15:31:03.966Z,9.60
2019-04-27T15:33:51.421Z,9.50
2019-04-27T15:36:45.878Z,7.30
2019-04-27T15:39:22.528Z,11.27
2019-04-27T15:41:54.889Z,9.00
2019-04-27T15:44:23.412Z,9.07
2019-04-27T15:46:51.875Z,6.20
2019-04-27T15:49:20.253Z,8.70
2019-04-27T15:51:50.598Z,9.87
2019-04-27T15:54:22.345Z,10.28
2019-04-27T15:56:49.449Z,8.20
2019-04-27T15:59:20.640Z,11.07
2019-04-27T16:01:49.121Z,8.67
2019-04-27T16:04:17.865Z,12.27
2019-04-27T16:06:47.448Z,8.70
2019-04-27T16:09:24.288Z,13.97
2019-04-27T16:11:57.631Z,11.23
2019-04-27T16:14:18.961Z,6.60
2019-04-27T16:16:48.774Z,12.43
2019-04-27T16:19:18.437Z,10.17
2019-04-27T16:21:52.045Z,9.70
2019-04-27T16:24:21.040Z,11.17
2019-04-27T16:26:54.621Z,8.63
2019-04-27T16:29:18.689Z,18.63
2019-04-27T16:31:48.109Z,13.80
2019-04-27T16:34:18.505Z,14.87
2019-04-27T16:36:47.464Z,9.83
2019-04-27T16:39:18.116Z,17.98
2019-04-27T16:41:49.978Z,15.47
2019-04-27T16:44:17.013Z,20.07
2019-04-27T16:46:45.789Z,13.13
2019-04-27T16:49:16.157Z,10.07
2019-04-27T16:51:44.799Z,18.93
2019-04-27T16:54:17.557Z,13.83
2019-04-27T16:56:49.698Z,17.33
2019-04-27T16:59:36.568Z,11.73
2019-04-27T17:01:47.414Z,13.60
2019-04-27T17:04:16.833Z,17.43
2019-04-27T17:06:48.877Z,16.83
2019-04-27T17:09:19.153Z,12.00
2019-04-27T17:11:50.405Z,22.73
2019-04-27T17:14:38.694Z,17.63
2019-04-27T17:17:18.078Z,16.33
2019-04-27T17:19:53.746Z,17.87
2019-04-27T17:22:22.550Z,16.20
2019-04-27T17:24:51.380Z,18.13
2019-04-27T17:27:29.209Z,16.47
2019-04-27T17:29:59.529Z,22.57
2019-04-27T17:32:44.013Z,23.90
2019-04-27T17:35:14.930Z,20.13
2019-04-27T17:37:44.510Z,19.10
2019-04-27T17:40:15.391Z,25.67
2019-04-27T17:42:43.244Z,20.13
2019-04-27T17:45:11.957Z,17.87
2019-04-27T17:47:40.282Z,21.40
2019-04-27T17:50:09.291Z,28.37
2019-04-27T17:52:39.712Z,23.77
2019-04-27T17:55:08.446Z,27.17
2019-04-27T17:57:39.081Z,18.97
2019-04-27T18:00:09.426Z,22.53
2019-04-27T18:02:42.270Z,22.10
2019-04-27T18:05:09.617Z,20.07
2019-04-27T18:07:42.665Z,28.23
2019-04-27T18:10:13.447Z,21.27
2019-04-27T18:12:39.819Z,21.50
2019-04-27T18:15:10.451Z,25.83
2019-04-27T18:17:40.972Z,19.57
2019-04-27T18:20:12.078Z,25.60
2019-04-27T18:22:45.328Z,26.10
2019-04-27T18:25:13.651Z,19.93
2019-04-27T18:28:08.033Z,23.23
2019-04-27T18:31:01.250Z,33.23
2019-04-27T18:33:32.704Z,25.07
2019-04-27T18:36:05.149Z,22.27
2019-04-27T18:38:30.803Z,21.73
2019-04-27T18:41:03.044Z,24.13
2019-04-27T18:43:31.709Z,26.80
2019-04-27T18:46:00.274Z,19.53
2019-04-27T18:49:03.479Z,37.80
2019-04-27T18:51:39.918Z,18.13
2019-04-27T18:54:08.478Z,33.63
2019-04-27T18:56:38.433Z,26.90
2019-04-27T18:59:08.594Z,32.67
2019-04-27T19:01:38.213Z,22.50
2019-04-27T19:04:08.534Z,19.93
2019-04-27T19:06:39.095Z,30.57
2019-04-27T19:09:08.398Z,34.93
2019-04-27T19:11:38.411Z,30.77
2019-04-27T19:14:08.275Z,19.47
2019-04-27T19:16:38.383Z,24.10
2019-04-27T19:19:08.741Z,33.70
2019-04-27T19:21:39.225Z,30.23
2019-04-27T19:24:08.887Z,29.83
2019-04-27T19:26:46.181Z,28.00
2019-04-27T19:29:21.472Z,23.33
2019-04-27T19:31:55.578Z,26.87
2019-04-27T19:34:24.128Z,28.43
2019-04-27T19:36:54.473Z,26.03
2019-04-27T19:39:23.158Z,36.63
2019-04-27T19:42:00.474Z,32.80
2019-04-27T19:44:22.930Z,32.53
2019-04-27T19:46:51.801Z,33.07
2019-04-27T19:49:22.624Z,33.87
2019-04-27T19:51:51.276Z,34.13
2019-04-27T19:54:21.498Z,35.00
2019-04-27T19:56:51.193Z,35.33
2019-04-27T19:59:30.941Z,31.77
2019-04-27T20:02:02.518Z,32.53
2019-04-27T20:04:36.720Z,32.87
2019-04-27T20:07:05.483Z,27.10
2019-04-27T20:10:05.276Z,29.90
2019-04-27T20:12:34.260Z,33.23
2019-04-27T20:15:03.245Z,26.50
2019-04-27T20:17:33.805Z,39.23
2019-04-27T20:20:03.423Z,33.00
2019-04-27T20:22:33.961Z,30.43
2019-04-27T20:25:03.338Z,25.00
2019-04-27T20:27:45.220Z,32.50
2019-04-27T20:30:04.417Z,28.77
2019-04-27T20:32:34.546Z,32.07
2019-04-27T20:35:03.072Z,23.30
2019-04-27T20:37:32.795Z,37.00
2019-04-27T20:40:01.844Z,30.57
2019-04-27T20:42:31.548Z,27.10
2019-04-27T20:45:01.979Z,24.93
2019-04-27T20:47:32.511Z,34.73
2019-04-27T20:50:01.211Z,27.43
2019-04-27T20:52:49.219Z,32.17
2019-04-27T20:55:17.514Z,31.40
2019-04-27T20:57:58.694Z,35.83
2019-04-27T21:00:21.852Z,31.30
2019-04-27T21:03:04.506Z,27.90
2019-04-27T21:05:44.622Z,31.30
2019-04-27T21:08:12.819Z,27.15
2019-04-27T21:10:41.452Z,32.93
2019-04-27T21:13:11.239Z,37.93
2019-04-27T21:15:41.709Z,40.57
2019-04-27T21:18:11.483Z,37.00
2019-04-27T21:20:41.144Z,28.93
2019-04-27T21:23:11.882Z,26.93
2019-04-27T21:25:42.066Z,35.60
2019-04-27T21:28:16.472Z,27.20
2019-04-27T21:30:40.830Z,27.53
2019-04-27T21:33:11.343Z,25.80
2019-04-27T21:35:40.205Z,34.37
2019-04-27T21:38:08.890Z,28.87
2019-04-27T21:40:37.474Z,31.73
2019-04-27T21:43:06.264Z,28.97
2019-04-27T21:45:35.149Z,30.73
2019-04-27T21:48:03.541Z,27.70
2019-04-27T21:50:32.296Z,26.33
2019-04-27T21:53:11.023Z,30.40
2019-04-27T21:55:39.373Z,35.77
2019-04-27T21:58:08.001Z,26.33
2019-04-27T22:00:54.970Z,37.07
2019-04-27T22:03:28.765Z,25.03
2019-04-27T22:05:57.408Z,30.37
2019-04-27T22:08:26.194Z,27.80
2019-04-27T22:10:54.523Z,20.97
2019-04-27T22:13:23.010Z,35.50
2019-04-27T22:15:52.003Z,26.50
2019-04-27T22:18:21.228Z,39.00
2019-04-27T22:20:51.049Z,27.53
2019-04-27T22:23:31.578Z,25.90
2019-04-27T22:26:01.285Z,27.57
2019-04-27T22:28:44.202Z,25.70
2019-04-27T22:31:00.905Z,31.47
2019-04-27T22:33:29.281Z,34.73
2019-04-27T22:35:57.834Z,27.50
2019-04-27T22:38:26.459Z,22.40
2019-04-27T22:41:17.570Z,22.87
2019-04-27T22:44:06.838Z,29.07
2019-04-27T22:46:36.429Z,45.83
2019-04-27T22:49:05.286Z,22.73
2019-04-27T22:51:33.782Z,26.70
2019-04-27T22:54:02.196Z,21.37
2019-04-27T22:56:32.041Z,36.47
2019-04-27T22:59:19.230Z,21.87
2019-04-27T23:02:13.417Z,36.50
2019-04-27T23:04:45.538Z,25.37
2019-04-27T23:07:14.472Z,27.67
2019-04-27T23:09:43.070Z,22.50
2019-04-27T23:12:12.397Z,23.97
2019-04-27T23:14:41.505Z,28.07
2019-04-27T23:17:31.546Z,20.90
2019-04-27T23:20:01.383Z,20.30
2019-04-27T23:22:31.555Z,21.83
2019-04-27T23:25:01.083Z,34.80
2019-04-27T23:27:31.709Z,25.30
2019-04-27T23:30:01.439Z,29.13
2019-04-27T23:32:41.267Z,21.07
2019-04-27T23:35:10.036Z,33.87
2019-04-27T23:37:38.697Z,21.60
2019-04-27T23:40:07.633Z,29.87
2019-04-27T23:42:36.469Z,30.57
2019-04-27T23:45:05.181Z,27.30
2019-04-27T23:47:33.610Z,44.77
2019-04-27T23:50:08.521Z,26.00
2019-04-27T23:52:55.639Z,26.77
2019-04-27T23:55:27.385Z,23.90
2019-04-27T23:57:56.235Z,26.87
